createdAt,value
2018-05-21T00:02:26.582Z,13.20
2018-05-21T00:04:53.346Z,13.00
2018-05-21T00:07:19.341Z,13.00
2018-05-21T00:09:46.097Z,13.00
2018-05-21T00:12:12.871Z,12.90
2018-05-21T00:14:39.580Z,12.90
2018-05-21T00:17:06.321Z,12.80
2018-05-21T00:19:33.073Z,12.90
2018-05-21T00:21:59.075Z,12.90
2018-05-21T00:24:25.813Z,12.80
2018-05-21T00:26:52.549Z,12.70
2018-05-21T00:29:18.545Z,12.70
2018-05-21T00:31:44.538Z,12.80
2018-05-21T00:34:10.553Z,12.80
2018-05-21T00:36:36.558Z,12.70
2018-05-21T00:39:02.586Z,12.60
2018-05-21T00:41:29.304Z,12.70
2018-05-21T00:43:55.369Z,12.70
2018-05-21T00:46:21.301Z,12.70
2018-05-21T00:48:47.285Z,12.80
2018-05-21T00:51:13.283Z,12.60
2018-05-21T00:53:39.272Z,12.70
2018-05-21T00:56:05.262Z,12.50
2018-05-21T00:58:31.261Z,12.60
2018-05-21T01:00:57.313Z,12.60
2018-05-21T01:03:23.328Z,12.60
2018-05-21T01:05:50.058Z,12.50
2018-05-21T01:08:16.866Z,12.50
2018-05-21T01:10:42.878Z,12.50
2018-05-21T01:13:08.893Z,12.50
2018-05-21T01:15:34.978Z,12.50
2018-05-21T01:18:00.926Z,12.50
2018-05-21T01:20:27.665Z,12.40
2018-05-21T01:22:53.689Z,12.40
2018-05-21T01:25:19.725Z,12.40
2018-05-21T01:27:45.721Z,12.30
2018-05-21T01:30:11.771Z,12.30
2018-05-21T01:32:37.753Z,12.30
2018-05-21T01:35:03.930Z,12.30
2018-05-21T01:37:29.917Z,12.20
2018-05-21T01:39:56.669Z,12.20
2018-05-21T01:42:22.653Z,12.20
2018-05-21T01:44:48.645Z,12.20
2018-05-21T01:47:14.693Z,12.20
2018-05-21T01:49:40.740Z,12.20
2018-05-21T01:52:06.733Z,12.10
2018-05-21T01:54:32.726Z,12.30
2018-05-21T01:56:58.705Z,12.10
2018-05-21T01:59:25.455Z,12.10
2018-05-21T02:01:51.562Z,12.00
2018-05-21T02:04:17.546Z,12.00
2018-05-21T02:06:43.528Z,12.00
2018-05-21T02:09:10.261Z,11.90
2018-05-21T02:11:36.998Z,11.90
2018-05-21T02:14:04.472Z,11.90
2018-05-21T02:16:31.220Z,11.90
2018-05-21T02:18:57.231Z,11.90
2018-05-21T02:21:23.985Z,11.80
2018-05-21T02:23:50.100Z,11.80
2018-05-21T02:26:16.115Z,11.80
2018-05-21T02:28:42.853Z,11.80
2018-05-21T02:31:09.614Z,11.80
2018-05-21T02:33:35.617Z,11.80
2018-05-21T02:36:02.357Z,11.70
2018-05-21T02:38:29.085Z,11.70
2018-05-21T02:40:55.164Z,11.70
2018-05-21T02:43:21.160Z,11.70
2018-05-21T02:45:47.901Z,11.70
2018-05-21T02:48:14.666Z,11.60
2018-05-21T02:50:41.403Z,11.70
2018-05-21T02:53:07.393Z,11.70
2018-05-21T02:55:34.134Z,11.80
2018-05-21T02:58:00.869Z,11.80
2018-05-21T03:00:27.629Z,11.80
2018-05-21T03:02:54.352Z,11.70
2018-05-21T03:05:20.357Z,11.70
2018-05-21T03:07:46.373Z,11.70
2018-05-21T03:10:12.361Z,11.70
2018-05-21T03:12:39.077Z,11.60
2018-05-21T03:15:05.823Z,11.60
2018-05-21T03:17:32.557Z,11.60
2018-05-21T03:19:59.305Z,11.60
2018-05-21T03:22:26.067Z,11.50
2018-05-21T03:24:52.069Z,11.50
2018-05-21T03:27:18.805Z,11.60
2018-05-21T03:29:45.530Z,11.60
2018-05-21T03:32:11.770Z,11.60
2018-05-21T03:34:38.554Z,11.60
2018-05-21T03:37:05.253Z,11.60
2018-05-21T03:39:31.981Z,11.60
2018-05-21T03:41:58.013Z,11.60
2018-05-21T03:44:24.747Z,11.70
2018-05-21T03:46:51.522Z,11.70
2018-05-21T03:49:17.518Z,11.70
2018-05-21T03:51:44.270Z,11.70
2018-05-21T03:54:10.274Z,11.60
2018-05-21T03:56:37.014Z,11.70
2018-05-21T03:59:09.844Z,11.70
2018-05-21T04:01:42.005Z,11.70
2018-05-21T04:04:07.990Z,11.80
2018-05-21T04:06:34.725Z,11.80
2018-05-21T04:09:01.477Z,11.90
2018-05-21T04:11:28.228Z,11.90
2018-05-21T04:13:54.229Z,11.80
2018-05-21T04:16:20.233Z,11.60
2018-05-21T04:18:46.312Z,11.50
2018-05-21T04:21:12.217Z,11.90
2018-05-21T04:23:38.966Z,12.00
2018-05-21T04:26:05.685Z,12.00
2018-05-21T04:28:32.449Z,12.10
2018-05-21T04:30:58.425Z,12.10
2018-05-21T04:33:24.417Z,12.20
2018-05-21T04:35:50.388Z,12.30
2018-05-21T04:38:16.375Z,12.30
2018-05-21T04:40:42.353Z,12.30
2018-05-21T04:43:08.401Z,12.30
2018-05-21T04:45:34.380Z,12.30
2018-05-21T04:48:00.357Z,12.40
2018-05-21T04:50:26.352Z,12.40
2018-05-21T04:52:53.073Z,12.40
2018-05-21T04:55:19.801Z,12.50
2018-05-21T04:57:45.833Z,12.50
2018-05-21T05:00:11.833Z,12.50
2018-05-21T05:02:37.834Z,12.50
2018-05-21T05:05:03.845Z,12.50
2018-05-21T05:07:29.861Z,12.60
2018-05-21T05:09:55.853Z,12.60
2018-05-21T05:12:22.589Z,12.70
2018-05-21T05:14:48.577Z,12.70
2018-05-21T05:17:14.573Z,12.80
2018-05-21T05:19:40.569Z,12.90
2018-05-21T05:22:07.297Z,13.00
2018-05-21T05:24:33.292Z,13.00
2018-05-21T05:26:59.261Z,13.10
2018-05-21T05:29:26.021Z,13.20
2018-05-21T05:31:52.019Z,13.20
2018-05-21T05:34:18.749Z,13.30
2018-05-21T05:36:44.745Z,13.20
2018-05-21T05:39:10.773Z,13.30
2018-05-21T05:41:36.794Z,13.40
2018-05-21T05:44:02.789Z,13.50
2018-05-21T05:46:28.825Z,13.60
2018-05-21T05:48:54.891Z,13.50
2018-05-21T05:51:20.830Z,13.70
2018-05-21T05:53:46.821Z,13.80
2018-05-21T05:56:12.802Z,13.80
2018-05-21T05:58:38.780Z,13.80
2018-05-21T06:01:04.757Z,13.90
2018-05-21T06:03:30.770Z,14.00
2018-05-21T06:05:56.802Z,14.10
2018-05-21T06:08:22.773Z,14.20
2018-05-21T06:10:48.837Z,14.30
2018-05-21T06:13:14.849Z,14.40
2018-05-21T06:15:41.561Z,14.50
2018-05-21T06:18:07.581Z,14.50
2018-05-21T06:20:33.560Z,14.60
2018-05-21T06:22:59.553Z,14.60
2018-05-21T06:25:26.269Z,14.70
2018-05-21T06:27:52.266Z,14.70
2018-05-21T06:30:18.242Z,14.80
2018-05-21T06:32:44.245Z,14.80
2018-05-21T06:35:10.217Z,14.90
2018-05-21T06:37:36.189Z,15.00
2018-05-21T06:40:02.234Z,15.10
2018-05-21T06:42:28.214Z,15.10
2018-05-21T06:44:54.254Z,15.30
2018-05-21T06:47:20.981Z,15.50
2018-05-21T06:49:46.988Z,15.40
2018-05-21T06:52:13.046Z,15.50
2018-05-21T06:54:39.066Z,15.60
2018-05-21T06:57:05.793Z,16.00
2018-05-21T06:59:31.784Z,16.00
2018-05-21T07:01:57.756Z,16.10
2018-05-21T07:04:23.849Z,16.30
2018-05-21T07:06:49.837Z,16.50
2018-05-21T07:09:16.562Z,16.60
2018-05-21T07:11:43.285Z,16.70
2018-05-21T07:14:09.292Z,16.60
2018-05-21T07:16:35.392Z,16.60
2018-05-21T07:19:01.395Z,16.50
2018-05-21T07:21:27.373Z,16.60
2018-05-21T07:23:53.357Z,16.80
2018-05-21T07:26:19.338Z,17.00
2018-05-21T07:28:45.377Z,17.20
2018-05-21T07:31:11.367Z,17.40
2018-05-21T07:33:37.374Z,17.50
2018-05-21T07:36:03.357Z,17.50
2018-05-21T07:38:29.346Z,17.70
2018-05-21T07:40:55.324Z,17.80
2018-05-21T07:43:21.346Z,17.90
2018-05-21T07:45:47.329Z,17.80
2018-05-21T07:48:14.074Z,18.00
2018-05-21T07:50:40.810Z,18.10
2018-05-21T07:53:07.602Z,18.20
2018-05-21T07:55:33.557Z,18.20
2018-05-21T07:58:00.342Z,18.30
2018-05-21T08:00:26.347Z,18.20
2018-05-21T08:02:52.337Z,18.40
2018-05-21T08:05:18.409Z,18.40
2018-05-21T08:07:44.310Z,18.30
2018-05-21T08:10:11.054Z,18.50
2018-05-21T08:12:37.525Z,18.50
2018-05-21T08:15:03.646Z,18.60
2018-05-21T08:17:29.777Z,18.70
2018-05-21T08:19:55.865Z,18.80
2018-05-21T08:22:21.946Z,18.90
2018-05-21T08:24:47.913Z,19.00
2018-05-21T08:27:14.647Z,19.20
2018-05-21T08:29:40.641Z,19.20
2018-05-21T08:32:06.665Z,19.30
2018-05-21T08:34:32.637Z,19.40
2018-05-21T08:36:58.605Z,19.50
2018-05-21T08:39:25.011Z,19.50
2018-05-21T08:41:51.467Z,19.50
2018-05-21T08:44:17.851Z,19.70
2018-05-21T08:46:43.934Z,19.80
2018-05-21T08:49:09.960Z,19.90
2018-05-21T08:51:37.434Z,20.20
2018-05-21T08:54:04.186Z,20.40
2018-05-21T08:56:30.928Z,20.50
2018-05-21T08:58:57.660Z,20.60
2018-05-21T09:01:24.392Z,20.60
2018-05-21T09:03:50.373Z,20.60
2018-05-21T09:06:16.376Z,20.50
2018-05-21T09:08:42.572Z,20.70
2018-05-21T09:11:09.233Z,20.90
2018-05-21T09:13:35.297Z,21.00
2018-05-21T09:16:01.289Z,21.20
2018-05-21T09:18:27.273Z,21.30
2018-05-21T09:20:53.284Z,21.10
2018-05-21T09:23:19.270Z,21.10
2018-05-21T09:25:45.281Z,21.20
2018-05-21T09:28:11.272Z,21.40
2018-05-21T09:30:37.288Z,21.40
2018-05-21T09:33:03.262Z,21.30
2018-05-21T09:35:29.245Z,21.50
2018-05-21T09:37:55.215Z,21.60
2018-05-21T09:40:21.200Z,21.70
2018-05-21T09:42:47.922Z,21.60
2018-05-21T09:45:13.900Z,21.60
2018-05-21T09:47:39.877Z,21.60
2018-05-21T09:50:05.922Z,21.70
2018-05-21T09:52:31.945Z,21.70
2018-05-21T09:54:58.681Z,21.90
2018-05-21T09:57:25.385Z,22.10
2018-05-21T09:59:51.408Z,22.10
2018-05-21T10:02:18.893Z,22.10
2018-05-21T10:04:45.629Z,22.30
2018-05-21T10:07:12.368Z,22.40
2018-05-21T10:09:39.112Z,22.40
2018-05-21T10:12:05.928Z,22.40
2018-05-21T10:14:32.646Z,22.20
2018-05-21T10:16:59.354Z,22.20
2018-05-21T10:19:25.465Z,22.20
2018-05-21T10:21:51.397Z,22.30
2018-05-21T10:24:18.121Z,22.60
2018-05-21T10:26:44.884Z,22.60
2018-05-21T10:29:10.885Z,22.50
2018-05-21T10:31:36.882Z,22.60
2018-05-21T10:34:02.866Z,22.90
2018-05-21T10:36:28.869Z,22.80
2018-05-21T10:38:55.593Z,22.80
2018-05-21T10:41:21.585Z,22.70
2018-05-21T10:43:47.592Z,23.00
2018-05-21T10:46:13.565Z,23.20
2018-05-21T10:48:40.297Z,23.30
2018-05-21T10:51:07.789Z,23.30
2018-05-21T10:53:33.777Z,23.30
2018-05-21T10:55:59.829Z,23.70
2018-05-21T10:58:26.549Z,23.70
2018-05-21T11:00:52.546Z,23.70
2018-05-21T11:03:18.564Z,23.70
2018-05-21T11:05:44.532Z,23.60
2018-05-21T11:08:11.285Z,23.60
2018-05-21T11:10:38.002Z,23.60
2018-05-21T11:13:04.736Z,23.60
2018-05-21T11:15:30.746Z,23.60
2018-05-21T11:17:56.758Z,23.40
2018-05-21T11:20:22.753Z,23.50
2018-05-21T11:22:48.757Z,23.70
2018-05-21T11:25:15.489Z,23.70
2018-05-21T11:27:42.250Z,23.60
2018-05-21T11:30:08.253Z,23.60
2018-05-21T11:32:34.996Z,24.10
2018-05-21T11:35:01.743Z,24.60
2018-05-21T11:37:28.481Z,24.50
2018-05-21T11:39:55.201Z,24.60
2018-05-21T11:42:21.201Z,24.60
2018-05-21T11:44:47.177Z,24.40
2018-05-21T11:47:13.173Z,24.30
2018-05-21T11:49:39.902Z,24.30
2018-05-21T11:52:05.901Z,24.30
2018-05-21T11:54:31.893Z,24.50
2018-05-21T11:56:57.925Z,24.70
2018-05-21T11:59:24.721Z,25.10
2018-05-21T12:01:51.482Z,25.20
2018-05-21T12:04:18.205Z,25.40
2018-05-21T12:06:44.222Z,25.40
2018-05-21T12:09:10.201Z,25.70
2018-05-21T12:11:36.190Z,25.80
2018-05-21T12:14:02.917Z,25.90
2018-05-21T12:16:29.653Z,25.80
2018-05-21T12:18:55.625Z,25.80
2018-05-21T12:21:21.597Z,25.70
2018-05-21T12:23:47.613Z,25.70
2018-05-21T12:26:13.589Z,25.60
2018-05-21T12:28:39.625Z,25.40
2018-05-21T12:31:05.589Z,25.60
2018-05-21T12:33:31.566Z,25.80
2018-05-21T12:35:57.569Z,26.10
2018-05-21T12:38:23.561Z,26.40
2018-05-21T12:40:49.606Z,26.50
2018-05-21T12:43:15.623Z,26.30
2018-05-21T12:45:42.364Z,26.20
2018-05-21T12:48:09.110Z,25.90
2018-05-21T12:50:35.855Z,25.90
2018-05-21T12:53:01.857Z,25.90
2018-05-21T12:55:27.837Z,26.10
2018-05-21T13:11:40.765Z,26.80
2018-05-21T13:14:06.752Z,26.60
2018-05-21T13:16:33.472Z,26.70
2018-05-21T13:19:00.212Z,26.50
2018-05-21T13:21:26.193Z,26.50
2018-05-21T13:23:52.913Z,26.70
2018-05-21T13:26:18.929Z,26.70
2018-05-21T13:28:44.924Z,26.90
2018-05-21T13:31:11.741Z,27.10
2018-05-21T13:33:37.780Z,27.10
2018-05-21T13:36:04.633Z,26.70
2018-05-21T13:38:30.637Z,26.70
2018-05-21T13:40:56.737Z,27.20
2018-05-21T13:43:22.804Z,26.50
2018-05-21T13:45:49.528Z,26.50
2018-05-21T13:48:15.828Z,26.50
2018-05-21T13:50:42.601Z,27.40
2018-05-21T13:53:08.602Z,27.30
2018-05-21T13:55:34.597Z,27.10
2018-05-21T13:58:00.598Z,26.70
2018-05-21T14:00:26.573Z,26.80
2018-05-21T14:02:52.566Z,26.40
2018-05-21T14:05:18.564Z,26.60
2018-05-21T14:07:44.565Z,26.40
2018-05-21T14:10:11.325Z,26.60
2018-05-21T14:12:37.412Z,26.60
2018-05-21T14:15:04.104Z,26.80
2018-05-21T14:17:30.825Z,26.90
2018-05-21T14:19:57.576Z,26.80
2018-05-21T14:22:24.293Z,27.20
2018-05-21T14:24:51.034Z,26.40
2018-05-21T14:27:17.036Z,26.40
2018-05-21T14:29:43.062Z,26.50
2018-05-21T14:32:09.034Z,27.30
2018-05-21T14:34:35.024Z,26.90
2018-05-21T14:37:01.037Z,26.70
2018-05-21T14:39:27.441Z,26.90
2018-05-21T14:41:53.674Z,27.10
2018-05-21T14:44:19.644Z,26.90
2018-05-21T14:46:46.400Z,26.60
2018-05-21T14:49:12.393Z,26.60
2018-05-21T14:51:38.368Z,26.50
2018-05-21T14:54:04.355Z,26.80
2018-05-21T14:56:31.098Z,26.30
2018-05-21T14:58:57.840Z,26.20
2018-05-21T15:01:24.799Z,26.30
2018-05-21T15:03:51.084Z,26.30
2018-05-21T15:06:17.080Z,26.50
2018-05-21T15:08:43.117Z,26.60
2018-05-21T15:11:09.106Z,25.30
2018-05-21T15:13:35.121Z,25.70
2018-05-21T15:16:01.125Z,26.20
2018-05-21T15:18:27.853Z,26.40
2018-05-21T15:20:54.606Z,25.90
2018-05-21T15:23:20.597Z,25.90
2018-05-21T15:25:46.601Z,26.00
2018-05-21T15:28:12.593Z,26.10
2018-05-21T15:30:38.569Z,26.40
2018-05-21T15:33:04.577Z,26.00
2018-05-21T15:35:30.559Z,25.90
2018-05-21T15:37:57.296Z,25.70
2018-05-21T15:40:24.018Z,25.90
2018-05-21T15:42:50.016Z,25.90
2018-05-21T15:45:16.045Z,26.00
2018-05-21T15:47:42.070Z,26.50
2018-05-21T15:50:08.048Z,26.50
2018-05-21T15:52:34.109Z,26.50
2018-05-21T15:55:00.094Z,26.30
2018-05-21T15:57:26.094Z,26.20
2018-05-21T15:59:52.852Z,26.60
2018-05-21T16:02:18.833Z,26.60
2018-05-21T16:04:44.841Z,26.80
2018-05-21T16:07:10.842Z,26.40
2018-05-21T16:09:36.838Z,25.80
2018-05-21T16:12:02.826Z,25.40
2018-05-21T16:14:28.836Z,25.20
2018-05-21T16:16:54.857Z,25.70
2018-05-21T16:19:20.860Z,25.90
2018-05-21T16:21:46.845Z,26.70
2018-05-21T16:24:13.594Z,26.40
2018-05-21T16:26:39.581Z,26.50
2018-05-21T16:29:05.590Z,26.70
2018-05-21T16:31:31.629Z,26.50
2018-05-21T16:33:57.645Z,26.40
2018-05-21T16:36:23.644Z,25.70
2018-05-21T16:38:49.646Z,26.00
2018-05-21T16:41:15.648Z,25.90
2018-05-21T16:43:42.388Z,25.70
2018-05-21T16:46:09.500Z,25.60
2018-05-21T16:48:35.478Z,25.70
2018-05-21T16:51:01.460Z,26.10
2018-05-21T16:53:27.461Z,26.00
2018-05-21T16:55:53.456Z,26.00
2018-05-21T16:58:20.171Z,26.00
2018-05-21T17:00:46.893Z,26.20
2018-05-21T17:03:12.865Z,26.20
2018-05-21T17:05:38.856Z,26.10
2018-05-21T17:08:05.609Z,25.00
2018-05-21T17:10:31.609Z,25.10
2018-05-21T17:12:58.341Z,25.20
2018-05-21T17:15:25.113Z,25.20
2018-05-21T17:17:51.089Z,25.00
2018-05-21T17:20:17.233Z,25.20
2018-05-21T17:22:43.157Z,25.10
2018-05-21T17:25:09.818Z,25.20
2018-05-21T17:27:36.564Z,25.00
2018-05-21T17:30:03.501Z,24.70
2018-05-21T17:32:32.192Z,24.50
2018-05-21T17:35:01.485Z,24.50
2018-05-21T17:37:29.874Z,24.50
2018-05-21T17:39:55.880Z,24.50
2018-05-21T17:42:23.068Z,24.20
2018-05-21T17:44:51.453Z,24.30
2018-05-21T17:47:17.869Z,24.30
2018-05-21T17:49:44.653Z,24.30
2018-05-21T17:52:14.733Z,23.00
2018-05-21T17:54:43.424Z,23.00
2018-05-21T17:57:10.476Z,22.90
2018-05-21T17:59:37.293Z,23.00
2018-05-21T18:02:04.982Z,23.10
2018-05-21T18:04:32.629Z,23.20
2018-05-21T18:07:00.513Z,23.00
2018-05-21T18:09:28.141Z,23.10
2018-05-21T18:11:55.673Z,22.40
2018-05-21T18:14:23.481Z,22.40
2018-05-21T18:16:52.518Z,22.10
2018-05-21T18:19:19.917Z,22.10
2018-05-21T18:21:52.014Z,22.10
2018-05-21T18:24:20.893Z,22.10
2018-05-21T18:29:27.817Z,21.60
2018-05-21T18:31:57.336Z,21.70
2018-05-21T18:34:25.245Z,21.70
2018-05-21T18:36:56.402Z,20.80
2018-05-21T18:39:35.555Z,20.50
2018-05-21T18:44:44.175Z,20.60
2018-05-21T18:47:24.278Z,20.40
2018-05-21T18:50:00.525Z,20.30
2018-05-21T18:52:36.846Z,20.20
2018-05-21T18:55:09.801Z,20.10
2018-05-21T19:00:27.793Z,19.60
2018-05-21T19:02:53.893Z,19.60
2018-05-21T19:05:19.901Z,19.50
2018-05-21T19:07:45.878Z,19.40
2018-05-21T19:10:11.922Z,19.30
2018-05-21T19:12:37.906Z,19.00
2018-05-21T19:15:03.997Z,18.90
2018-05-21T19:17:29.985Z,18.50
2018-05-21T19:19:55.981Z,18.70
2018-05-21T19:22:21.973Z,18.60
2018-05-21T19:24:47.966Z,18.60
2018-05-21T19:27:13.957Z,18.60
2018-05-21T19:29:40.685Z,18.20
2018-05-21T19:32:07.409Z,18.00
2018-05-21T19:34:33.509Z,18.00
2018-05-21T19:36:59.489Z,18.20
2018-05-21T19:39:26.252Z,18.00
2018-05-21T19:41:52.301Z,18.00
2018-05-21T19:44:18.277Z,18.10
2018-05-21T19:46:44.265Z,18.10
2018-05-21T19:49:10.246Z,17.90
2018-05-21T19:51:36.243Z,17.70
2018-05-21T19:54:03.025Z,17.90
2018-05-21T19:56:29.353Z,17.90
2018-05-21T19:58:55.442Z,17.90
2018-05-21T20:01:21.437Z,17.80
2018-05-21T20:03:47.413Z,17.60
2018-05-21T20:06:13.413Z,17.60
2018-05-21T20:08:40.121Z,17.60
2018-05-21T20:11:06.886Z,17.50
2018-05-21T20:13:32.976Z,17.50
2018-05-21T20:15:59.050Z,17.30
2018-05-21T20:18:30.993Z,17.30
2018-05-21T20:20:57.779Z,17.10
2018-05-21T20:23:23.793Z,17.10
2018-05-21T20:25:50.290Z,17.20
2018-05-21T20:28:16.434Z,17.20
2018-05-21T20:30:42.429Z,17.00
2018-05-21T20:33:08.417Z,17.30
2018-05-21T20:35:34.509Z,17.30
2018-05-21T20:38:00.490Z,17.00
2018-05-21T20:40:26.497Z,16.90
2018-05-21T20:42:52.482Z,17.00
2018-05-21T20:45:19.298Z,16.70
2018-05-21T20:47:45.246Z,16.70
2018-05-21T20:50:11.969Z,16.70
2018-05-21T20:52:38.701Z,16.70
2018-05-21T20:55:04.729Z,16.70
2018-05-21T20:57:31.467Z,16.50
2018-05-21T20:59:57.434Z,16.50
2018-05-21T21:02:23.457Z,16.40
2018-05-21T21:04:49.437Z,16.50
2018-05-21T21:07:16.179Z,16.20
2018-05-21T21:09:42.921Z,16.30
2018-05-21T21:12:09.664Z,16.30
2018-05-21T21:14:36.410Z,16.40
2018-05-21T21:17:03.149Z,16.40
2018-05-21T21:19:29.883Z,16.30
2018-05-21T21:21:56.613Z,16.30
2018-05-21T21:24:23.386Z,16.40
2018-05-21T21:26:49.390Z,16.40
2018-05-21T21:29:16.127Z,16.30
2018-05-21T21:31:42.857Z,16.10
2018-05-21T21:34:08.840Z,16.10
2018-05-21T21:36:34.845Z,16.10
2018-05-21T21:39:00.839Z,16.00
2018-05-21T21:41:27.614Z,15.90
2018-05-21T21:43:53.626Z,15.80
2018-05-21T21:46:19.637Z,15.90
2018-05-21T21:48:45.638Z,15.80
2018-05-21T21:51:11.638Z,15.80
2018-05-21T21:53:37.637Z,15.70
2018-05-21T21:56:03.656Z,15.60
2018-05-21T21:58:29.650Z,15.80
2018-05-21T22:00:56.419Z,15.80
2018-05-21T22:03:22.453Z,15.80
2018-05-21T22:05:48.437Z,15.90
2018-05-21T22:08:14.402Z,15.80
2018-05-21T22:10:40.442Z,15.80
2018-05-21T22:13:06.425Z,15.70
2018-05-21T22:15:33.146Z,15.70
2018-05-21T22:17:59.153Z,15.70
2018-05-21T22:20:25.118Z,15.60
2018-05-21T22:22:51.113Z,15.60
2018-05-21T22:25:17.841Z,15.50
2018-05-21T22:27:43.861Z,15.50
2018-05-21T22:30:09.840Z,15.50
2018-05-21T22:32:35.834Z,15.50
2018-05-21T22:35:01.844Z,15.50
2018-05-21T22:37:27.866Z,15.50
2018-05-21T22:39:53.829Z,15.40
2018-05-21T22:42:19.820Z,15.40
2018-05-21T22:44:45.789Z,15.40
2018-05-21T22:47:11.770Z,15.40
2018-05-21T22:49:37.761Z,15.40
2018-05-21T22:52:03.769Z,15.30
2018-05-21T22:54:33.709Z,15.40
2018-05-21T22:56:59.690Z,15.30
2018-05-21T22:59:25.666Z,15.40
2018-05-21T23:01:52.413Z,15.40
2018-05-21T23:04:19.148Z,15.40
2018-05-21T23:06:45.901Z,15.30
2018-05-21T23:09:12.014Z,15.30
2018-05-21T23:11:38.754Z,15.30
2018-05-21T23:14:05.499Z,15.30
2018-05-21T23:16:31.481Z,15.30
2018-05-21T23:18:57.470Z,15.30
2018-05-21T23:21:24.196Z,15.20
2018-05-21T23:23:50.193Z,15.10
2018-05-21T23:26:16.153Z,15.20
2018-05-21T23:28:42.149Z,15.10
2018-05-21T23:31:08.117Z,15.10
2018-05-21T23:33:34.117Z,14.90
2018-05-21T23:36:00.133Z,14.90
2018-05-21T23:38:26.133Z,14.80
2018-05-21T23:40:52.882Z,14.70
2018-05-21T23:43:19.629Z,14.70
2018-05-21T23:45:47.094Z,14.60
2018-05-21T23:48:13.849Z,14.60
2018-05-21T23:50:39.834Z,14.60
2018-05-21T23:53:05.853Z,14.60
2018-05-21T23:55:31.860Z,14.60
2018-05-21T23:57:57.875Z,14.70
